AirNav   Air Wisconsin Up To $57,000 Bonus
 
 1589 users online  

64G Page Regional Airport
Page, North Dakota, USA

GOING TO PAGE?


FAA INFORMATION EFFECTIVE 20 MAY 2021

Location

FAA Identifier: 64G
Lat/Long: 47-10-12.7000N 097-28-54.9000W
47-10.211667N 097-28.915000W
47.1701944,-97.4819167
(estimated)
Elevation: 1218 ft. / 371 m (estimated)
Variation: 07E (1985)
From city: 4 miles E of PAGE, ND
Time zone: UTC -5 (UTC -6 during Standard Time)
Zip code: 58064

Airport Operations

Airport use: Open to the public
Activation date: 12/1987
Control tower: no
ARTCC: MINNEAPOLIS CENTER
FSS: GRAND FORKS FLIGHT SERVICE STATION
NOTAMs facility: GFK (NOTAM-D service available)
Attendance: ON CALL
FOR ARPT SERVICES CALL AMGR AT 701-668-2302.
Wind indicator: yes
Segmented circle: no

Airport Communications

CTAF: 122.9

Nearby radio navigation aids

VOR radial/distance  VOR name  Freq  Var
FARr305/35.9FARGO VOR/DME116.2009E

Airport Services

Fuel available: 100LL
100LL:FOR FUEL CALL 701-668-2302.
Parking: hangars and tiedowns
Airframe service: MAJOR
Powerplant service: MAJOR

Runway Information

Runway 17/35

Dimensions: 2600 x 30 ft. / 792 x 9 m
Surface: asphalt, in fair condition
Operational restrictions: RWY 35 END LACKS TURNAROUND
RUNWAY 17  RUNWAY 35
Latitude: 47-10.425395N47-09.997607N
Longitude: 097-28.917010W097-28.911478W
Elevation: 1213.0 ft.1218.0 ft.
Traffic pattern: leftleft
Runway heading: 173 magnetic, 180 true353 magnetic, 360 true
Markings: nonenone
Obstructions: 15 ft. other, 390 ft. from runway, 140 ft. left of centerline, 12:1 slope to clear
IRRIGATION PIVOT.
none
RY 35 15 FT RD 40 FT FM THLD.

Airport Ownership and Management from official FAA records

Ownership: Privately-owned
PROPERTY LEASED TO PAGE REGIONAL ARPT AUTHORITY.
Owner: TIM MCPHERSON
14269 17TH ST S.E.
PAGE, ND 58064
Phone 701-668-2302
Manager: TIM MCPHERSON
14269 17TH ST S.E.
PAGE, ND 58064
Phone 701-668-2302
AMGR HOME PHONE 701-668-2302 OR CELL 701-799-8629

Airport Operational Statistics

Aircraft based on the field: 12
Single engine airplanes: 10
Multi engine airplanes: 2
    
Aircraft operations: avg 78/week *
74% local general aviation
25% transient general aviation
1% air taxi
<1% military
* for 12-month period ending 20 May 2019

Additional Remarks

RY 17/35 HAS CULTIVATED FIELDS AT BOTH ENDS.
CONFIRM SNOW REMOVAL AFTER WINTER STORMS WITH AMGR.
BIRD & DEER ON & INVOF ARPT.
FOR CD CTC MINNEAPOLIS ARTCC AT 651-463-5588.

Instrument Procedures

There are no published instrument procedures at 64G.

Some nearby airports with instrument procedures:

3H4 - Hillsboro Municipal Airport (21 nm NE)
5N8 - Casselton Robert Miller Regional Airport (22 nm SE)
KBAC - Barnes County Municipal Airport (26 nm SW)
S32 - Cooperstown Municipal Airport (30 nm NW)
KFAR - Hector International Airport (31 nm SE)
 
Loc | Ops | Rwys | IFR | FBO | Links
Com | Nav | Svcs | Stats | Notes

Bismarck Aero Center
AirBoss

 
Area around 64G (Page Regional Airport)
 
Road maps at: MapQuest Bing Google
 
Aerial photo
WARNING: Photo may not be current or correct
Aerial photo of 64G (Page Regional Airport)
Do you have a better or more recent aerial photo of Page Regional Airport that you would like to share? If so, please send us your photo.

 
Sectional chart

 
Airport distance calculator
Flying to Page Regional Airport? Find the distance to fly.

From to 64G

Sunrise and sunset
Times for 14-Jun-2021
 Local
(UTC-5)
 Zulu
(UTC)
Morning civil twilight04:5509:55
Sunrise05:3410:34
Sunset21:2602:26
Evening civil twilight22:0603:06

Current date and time
Zulu (UTC)  14-Jun-2021 19:03:01
Local (UTC-5)  14-Jun-2021 14:03:01
 
METAR
KBAC 
26nm SW 
141855Z AUTO 03005KT 10SM CLR 27/08 A3017 RMK AO2
KS32 
30nm NW 
141855Z AUTO VRB06KT 300V010 10SM CLR 28/07 A3017 RMK AO2 TSNO
KFAR 
31nm SE 
141853Z AUTO 02011G16KT 10SM CLR 28/08 A3012 RMK AO2 SLP196 T02830078 PNO $
KJKJ 
39nm SE 
141855Z AUTO 01011G20KT 10SM CLR 29/01 A3013 RMK AO2
KRDR 
48nm N 
141856Z AUTO 01009KT 10SM CLR 29/07 A3013 RMK AO2 SLP206 T02940073 $
KGFK 
48nm N 
141853Z 36008G18KT 10SM CLR 29/07 A3012 RMK AO2 SLP198 T02890067
TAF
KFAR 
31nm SE 
141733Z 1418/1518 VRB06KT P6SM SKC FM141900 36012KT P6SM SKC FM150600 VRB05KT P6SM SKC
NOTAMs
Click for the latest NOTAMs
NOTAMs are issued by the DoD/FAA and will open in a separate window not controlled by AirNav.

 

 
 

FBO, Fuel Providers, and Aircraft Ground Support

  
 Business Name 
 
 Contact 
 
 Services / Description 
 
Fuel Prices
 
Comments
  
Tall Towers Aviation 701-668-2302
no information available

If you are affiliated with Tall Towers Aviation and would like to show here your services, contact info, web link, logo, and more, click here
100LL
SS $5.85 
 Updated 30-Jun-2014
 
   write
SS=Self service
Update Fuel Prices
 

Would you like to see your business listed on this page?

 If your business provides an interesting product or service to pilots, flight crews, aircraft, or users of the Page Regional Airport, you should consider listing it here.  To start the listing process, click on the button below
 
Add a business
 

Other Pages about Page Regional Airport

Update a link
 
Copyright © AirNav, LLC. All rights reserved. Privacy Policy  Contact